createdAt,value
2018-04-16T00:00:45.878Z,12.57
2018-04-16T00:01:45.879Z,12.67
2018-04-16T00:02:45.875Z,12.71
2018-04-16T00:03:45.875Z,12.64
2018-04-16T00:04:45.871Z,12.54
2018-04-16T00:05:45.868Z,12.54
2018-04-16T00:06:45.869Z,12.50
2018-04-16T00:07:45.867Z,12.57
2018-04-16T00:08:45.862Z,12.54
2018-04-16T00:09:45.863Z,12.53
2018-04-16T00:10:45.860Z,12.53
2018-04-16T00:11:45.859Z,12.52
2018-04-16T00:12:45.855Z,12.54
2018-04-16T00:13:45.855Z,12.50
2018-04-16T00:14:45.853Z,12.62
2018-04-16T00:15:45.853Z,12.50
2018-04-16T00:16:45.850Z,12.49
2018-04-16T00:17:45.846Z,12.52
2018-04-16T00:18:45.846Z,12.49
2018-04-16T00:19:45.844Z,12.37
2018-04-16T00:20:45.836Z,12.28
2018-04-16T00:21:45.838Z,12.38
2018-04-16T00:22:45.836Z,12.41
2018-04-16T00:23:45.835Z,12.49
2018-04-16T00:24:45.830Z,12.39
2018-04-16T00:25:45.829Z,12.32
2018-04-16T00:26:45.825Z,12.38
2018-04-16T00:27:45.831Z,12.41
2018-04-16T00:28:45.823Z,12.38
2018-04-16T00:29:45.820Z,12.38
2018-04-16T00:30:45.866Z,12.45
2018-04-16T00:31:45.816Z,12.49
2018-04-16T00:32:45.813Z,12.42
2018-04-16T00:33:45.812Z,12.35
2018-04-16T00:34:45.811Z,12.42
2018-04-16T00:35:45.809Z,12.24
2018-04-16T00:36:45.805Z,12.27
2018-04-16T00:37:45.808Z,12.32
2018-04-16T00:38:45.802Z,12.37
2018-04-16T00:39:45.800Z,12.32
2018-04-16T00:40:45.799Z,12.35
2018-04-16T00:41:45.795Z,12.27
2018-04-16T00:42:45.791Z,12.27
2018-04-16T00:43:45.789Z,12.31
2018-04-16T00:44:45.787Z,12.19
2018-04-16T00:45:45.787Z,12.35
2018-04-16T00:46:45.783Z,12.32
2018-04-16T00:47:45.776Z,12.31
2018-04-16T00:48:45.778Z,12.28
2018-04-16T00:49:45.780Z,12.28
2018-04-16T00:50:45.782Z,12.27
2018-04-16T00:51:45.778Z,12.32
2018-04-16T00:52:45.773Z,12.32
2018-04-16T00:53:45.766Z,12.24
2018-04-16T00:54:45.772Z,12.28
2018-04-16T00:55:45.768Z,12.31
2018-04-16T00:56:45.761Z,12.27
2018-04-16T00:57:45.762Z,12.16
2018-04-16T00:58:45.760Z,12.19
2018-04-16T00:59:45.755Z,12.29
2018-04-16T01:00:45.749Z,12.24
2018-04-16T01:01:45.751Z,12.32
2018-04-16T01:02:45.749Z,12.27
2018-04-16T01:03:45.747Z,12.29
2018-04-16T01:04:45.752Z,12.28
2018-04-16T01:05:45.741Z,12.23
2018-04-16T01:06:45.737Z,12.29
2018-04-16T01:07:45.738Z,12.37
2018-04-16T01:08:45.734Z,12.34
2018-04-16T01:09:45.732Z,12.27
2018-04-16T01:10:45.729Z,12.27
2018-04-16T01:11:45.733Z,12.31
2018-04-16T01:12:45.726Z,12.27
2018-04-16T01:13:45.728Z,12.28
2018-04-16T01:14:45.723Z,12.23
2018-04-16T01:15:45.720Z,12.21
2018-04-16T01:16:45.716Z,12.16
2018-04-16T01:17:45.715Z,12.07
2018-04-16T01:18:45.711Z,12.04
2018-04-16T01:19:45.711Z,12.02
2018-04-16T01:20:45.709Z,12.02
2018-04-16T01:21:45.706Z,12.09
2018-04-16T01:22:45.702Z,12.14
2018-04-16T01:23:45.701Z,12.19
2018-04-16T01:24:45.700Z,12.17
2018-04-16T01:25:45.700Z,12.24
2018-04-16T01:26:45.695Z,12.20
2018-04-16T01:27:45.695Z,12.21
2018-04-16T01:28:45.690Z,12.23
2018-04-16T01:29:45.687Z,12.23
2018-04-16T01:30:45.687Z,12.17
2018-04-16T01:31:45.686Z,12.23
2018-04-16T01:32:45.683Z,12.14
2018-04-16T01:33:45.681Z,12.13
2018-04-16T01:34:45.679Z,12.02
2018-04-16T01:35:45.678Z,12.01
2018-04-16T01:36:45.682Z,12.07
2018-04-16T01:37:45.675Z,11.95
2018-04-16T01:38:45.676Z,11.96
2018-04-16T01:39:45.671Z,11.95
2018-04-16T01:40:45.671Z,11.86
2018-04-16T01:41:45.662Z,11.96
2018-04-16T01:42:45.658Z,11.99
2018-04-16T01:43:45.662Z,12.01
2018-04-16T01:44:45.668Z,11.95
2018-04-16T01:45:45.657Z,11.96
2018-04-16T01:46:45.653Z,12.01
2018-04-16T01:47:45.652Z,12.02
2018-04-16T01:48:45.648Z,12.02
2018-04-16T01:49:45.645Z,12.02
2018-04-16T01:50:45.645Z,12.01
2018-04-16T01:51:45.647Z,12.12
2018-04-16T01:52:45.642Z,12.12
2018-04-16T01:53:45.640Z,12.09
2018-04-16T01:54:45.634Z,12.02
2018-04-16T01:55:45.633Z,12.09
2018-04-16T01:56:45.634Z,12.14
2018-04-16T01:57:45.629Z,12.12
2018-04-16T01:58:45.627Z,12.01
2018-04-16T01:59:45.630Z,11.94
2018-04-16T02:00:45.621Z,11.86
2018-04-16T02:01:45.616Z,11.88
2018-04-16T02:02:45.619Z,11.82
2018-04-16T02:03:45.614Z,11.86
2018-04-16T02:04:45.610Z,11.76
2018-04-16T02:05:45.609Z,11.83
2018-04-16T02:06:45.606Z,11.83
2018-04-16T02:07:45.602Z,11.80
2018-04-16T02:08:45.600Z,11.76
2018-04-16T02:09:45.598Z,11.73
2018-04-16T02:10:45.598Z,11.73
2018-04-16T02:11:45.599Z,11.61
2018-04-16T02:12:45.590Z,11.61
2018-04-16T02:13:45.588Z,11.61
2018-04-16T02:14:45.594Z,11.54
2018-04-16T02:15:45.584Z,11.51
2018-04-16T02:16:45.580Z,11.62
2018-04-16T02:17:45.581Z,11.54
2018-04-16T02:18:45.576Z,11.64
2018-04-16T02:19:45.573Z,11.58
2018-04-16T02:20:45.569Z,11.61
2018-04-16T02:21:45.569Z,11.64
2018-04-16T02:22:45.565Z,11.64
2018-04-16T02:23:45.561Z,11.60
2018-04-16T02:24:45.558Z,11.70
2018-04-16T02:25:45.560Z,11.62
2018-04-16T02:26:45.554Z,11.69
2018-04-16T02:27:45.556Z,11.60
2018-04-16T02:28:45.551Z,11.54
2018-04-16T02:29:45.542Z,11.51
2018-04-16T02:30:45.543Z,11.54
2018-04-16T02:31:45.543Z,11.55
2018-04-16T02:32:45.542Z,11.55
2018-04-16T02:33:45.532Z,11.57
2018-04-16T02:34:45.535Z,11.70
2018-04-16T02:35:45.535Z,11.55
2018-04-16T02:36:45.523Z,11.58
2018-04-16T02:37:45.540Z,11.57
2018-04-16T02:38:45.522Z,11.72
2018-04-16T02:39:45.520Z,11.64
2018-04-16T02:40:45.518Z,11.61
2018-04-16T02:41:45.515Z,11.61
2018-04-16T02:42:45.519Z,11.75
2018-04-16T02:43:45.515Z,11.73
2018-04-16T02:44:45.508Z,11.76
2018-04-16T02:45:45.505Z,11.72
2018-04-16T02:46:45.500Z,11.67
2018-04-16T02:47:45.503Z,11.73
2018-04-16T02:48:45.497Z,11.70
2018-04-16T02:49:45.493Z,11.64
2018-04-16T02:50:45.489Z,11.62
2018-04-16T02:51:45.492Z,11.64
2018-04-16T02:52:45.484Z,11.64
2018-04-16T02:53:45.485Z,11.75
2018-04-16T02:54:45.487Z,11.69
2018-04-16T02:55:45.477Z,11.70
2018-04-16T02:56:45.485Z,11.76
2018-04-16T02:57:45.473Z,11.75
2018-04-16T02:58:45.471Z,11.78
2018-04-16T02:59:45.468Z,11.72
2018-04-16T03:00:45.468Z,11.61
2018-04-16T03:01:45.462Z,11.60
2018-04-16T03:02:45.467Z,11.75
2018-04-16T03:03:45.458Z,11.78
2018-04-16T03:04:45.453Z,11.80
2018-04-16T03:05:45.451Z,11.65
2018-04-16T03:06:45.450Z,11.72
2018-04-16T03:07:45.447Z,11.73
2018-04-16T03:08:45.444Z,11.62
2018-04-16T03:09:45.441Z,11.69
2018-04-16T03:10:45.439Z,11.60
2018-04-16T03:11:45.438Z,11.62
2018-04-16T03:12:45.435Z,11.61
2018-04-16T03:13:45.483Z,11.67
2018-04-16T03:14:45.430Z,11.62
2018-04-16T03:15:45.427Z,11.76
2018-04-16T03:16:45.423Z,11.73
2018-04-16T03:17:45.421Z,11.79
2018-04-16T03:18:45.420Z,11.75
2018-04-16T03:19:45.417Z,11.72
2018-04-16T03:20:45.450Z,11.75
2018-04-16T03:21:45.412Z,11.83
2018-04-16T03:22:45.405Z,11.79
2018-04-16T03:23:45.409Z,11.85
2018-04-16T03:24:45.407Z,11.80
2018-04-16T03:25:45.400Z,11.83
2018-04-16T03:26:45.403Z,11.83
2018-04-16T03:27:45.392Z,11.78
2018-04-16T03:28:45.395Z,11.78
2018-04-16T03:29:45.393Z,11.79
2018-04-16T03:30:45.393Z,11.75
2018-04-16T03:31:45.385Z,11.72
2018-04-16T03:32:45.383Z,11.85
2018-04-16T03:33:45.381Z,11.79
2018-04-16T03:34:45.381Z,11.78
2018-04-16T03:35:45.380Z,11.86
2018-04-16T03:36:45.373Z,11.78
2018-04-16T03:37:45.370Z,11.85
2018-04-16T03:38:45.374Z,11.79
2018-04-16T03:39:45.365Z,11.86
2018-04-16T03:40:45.363Z,11.82
2018-04-16T03:41:45.361Z,11.85
2018-04-16T03:42:45.359Z,11.79
2018-04-16T03:43:45.356Z,11.86
2018-04-16T03:44:45.353Z,11.90
2018-04-16T03:45:45.349Z,11.80
2018-04-16T03:46:45.348Z,11.94
2018-04-16T03:47:45.345Z,11.91
2018-04-16T03:48:45.344Z,11.90
2018-04-16T03:49:45.346Z,11.94
2018-04-16T03:50:45.338Z,11.91
2018-04-16T03:51:45.336Z,11.88
2018-04-16T03:52:45.333Z,11.86
2018-04-16T03:53:45.330Z,11.95
2018-04-16T03:54:45.329Z,11.94
2018-04-16T03:55:45.326Z,11.95
2018-04-16T03:56:45.327Z,11.98
2018-04-16T03:57:45.315Z,11.91
2018-04-16T03:58:45.318Z,11.96
2018-04-16T03:59:45.316Z,11.98
2018-04-16T04:00:45.317Z,11.91
2018-04-16T04:01:45.311Z,12.05
2018-04-16T04:02:45.308Z,11.96
2018-04-16T04:03:45.306Z,11.94
2018-04-16T04:04:45.305Z,11.86
2018-04-16T04:05:45.300Z,11.95
2018-04-16T04:06:45.299Z,12.05
2018-04-16T04:07:45.299Z,11.99
2018-04-16T04:08:45.294Z,11.96
2018-04-16T04:09:45.292Z,11.99
2018-04-16T04:10:45.294Z,11.90
2018-04-16T04:11:45.288Z,11.99
2018-04-16T04:12:45.284Z,11.95
2018-04-16T04:13:45.286Z,11.99
2018-04-16T04:14:45.280Z,11.83
2018-04-16T04:15:45.277Z,11.80
2018-04-16T04:16:45.273Z,11.88
2018-04-16T04:17:45.274Z,11.90
2018-04-16T04:18:45.273Z,11.80
2018-04-16T04:19:45.272Z,11.85
2018-04-16T04:20:45.265Z,11.79
2018-04-16T04:21:45.264Z,11.85
2018-04-16T04:22:45.258Z,11.88
2018-04-16T04:23:45.256Z,11.85
2018-04-16T04:24:45.257Z,11.86
2018-04-16T04:25:45.270Z,11.85
2018-04-16T04:26:45.248Z,11.90
2018-04-16T04:27:45.245Z,11.96
2018-04-16T04:28:45.243Z,11.94
2018-04-16T04:29:45.246Z,11.91
2018-04-16T04:30:45.237Z,11.82
2018-04-16T04:31:45.237Z,11.90
2018-04-16T04:32:45.236Z,11.95
2018-04-16T04:33:45.230Z,11.91
2018-04-16T04:34:45.234Z,11.98
2018-04-16T04:35:45.227Z,11.86
2018-04-16T04:36:45.223Z,11.91
2018-04-16T04:37:45.221Z,11.79
2018-04-16T04:38:45.218Z,11.88
2018-04-16T04:39:45.216Z,11.85
2018-04-16T04:40:45.224Z,11.83
2018-04-16T04:41:45.211Z,11.79
2018-04-16T04:42:45.208Z,11.90
2018-04-16T04:43:45.208Z,11.83
2018-04-16T04:44:45.201Z,11.85
2018-04-16T04:45:45.201Z,11.85
2018-04-16T04:46:45.201Z,11.79
2018-04-16T04:47:45.193Z,11.83
2018-04-16T04:48:45.191Z,11.90
2018-04-16T04:49:45.187Z,11.91
2018-04-16T04:50:45.189Z,11.88
2018-04-16T04:51:45.186Z,11.82
2018-04-16T04:52:45.181Z,11.86
2018-04-16T04:53:45.196Z,11.90
2018-04-16T04:54:45.176Z,11.99
2018-04-16T04:55:45.172Z,12.01
2018-04-16T04:56:45.169Z,11.99
2018-04-16T04:57:45.173Z,11.94
2018-04-16T04:58:45.165Z,11.94
2018-04-16T04:59:45.161Z,11.86
2018-04-16T05:00:45.158Z,11.90
2018-04-16T05:01:45.163Z,11.82
2018-04-16T05:02:45.154Z,11.76
2018-04-16T05:03:45.165Z,11.79
2018-04-16T05:04:45.148Z,11.79
2018-04-16T05:05:45.148Z,11.73
2018-04-16T05:06:45.145Z,11.65
2018-04-16T05:07:45.146Z,11.58
2018-04-16T05:08:45.138Z,11.70
2018-04-16T05:09:45.136Z,11.76
2018-04-16T05:10:45.133Z,11.73
2018-04-16T05:11:45.130Z,11.79
2018-04-16T05:12:45.133Z,11.78
2018-04-16T05:13:45.123Z,11.75
2018-04-16T05:14:45.124Z,11.78
2018-04-16T05:15:45.120Z,11.75
2018-04-16T05:16:45.112Z,11.78
2018-04-16T05:17:45.127Z,11.83
2018-04-16T05:18:45.110Z,11.70
2018-04-16T05:19:45.109Z,11.80
2018-04-16T05:20:45.104Z,11.72
2018-04-16T05:21:45.102Z,11.78
2018-04-16T05:22:45.099Z,11.80
2018-04-16T05:23:45.099Z,11.79
2018-04-16T05:24:45.093Z,11.79
2018-04-16T05:25:45.092Z,11.80
2018-04-16T05:26:45.090Z,11.76
2018-04-16T05:27:45.083Z,11.78
2018-04-16T05:28:45.081Z,11.78
2018-04-16T05:29:45.079Z,11.78
2018-04-16T05:30:45.082Z,11.82
2018-04-16T05:31:45.081Z,11.76
2018-04-16T05:32:45.072Z,11.76
2018-04-16T05:33:45.070Z,11.75
2018-04-16T05:34:45.065Z,11.82
2018-04-16T05:35:45.066Z,11.75
2018-04-16T05:36:45.059Z,11.78
2018-04-16T05:37:45.055Z,11.69
2018-04-16T05:38:45.054Z,11.72
2018-04-16T05:39:45.060Z,11.64
2018-04-16T05:40:45.051Z,11.65
2018-04-16T05:41:45.045Z,11.72
2018-04-16T05:42:45.043Z,11.73
2018-04-16T05:43:45.042Z,11.72
2018-04-16T05:44:45.034Z,11.62
2018-04-16T05:45:45.037Z,11.54
2018-04-16T05:46:45.032Z,11.60
2018-04-16T05:47:45.032Z,11.57
2018-04-16T05:48:45.028Z,11.62
2018-04-16T05:49:45.024Z,11.62
2018-04-16T05:50:45.022Z,11.72
2018-04-16T05:51:45.016Z,11.64
2018-04-16T05:52:45.013Z,11.64
2018-04-16T05:53:45.009Z,11.65
2018-04-16T05:54:45.005Z,11.62
2018-04-16T05:55:45.003Z,11.64
2018-04-16T05:56:45.000Z,11.64
2018-04-16T05:57:44.997Z,11.61
2018-04-16T05:58:44.992Z,11.61
2018-04-16T05:59:44.994Z,11.62
2018-04-16T06:00:44.993Z,11.61
2018-04-16T06:01:44.985Z,11.61
2018-04-16T06:02:44.985Z,11.72
2018-04-16T06:03:44.981Z,11.72
2018-04-16T06:04:44.982Z,11.70
2018-04-16T06:05:44.975Z,11.73
2018-04-16T06:06:44.971Z,11.70
2018-04-16T06:07:45.020Z,11.70
2018-04-16T06:08:45.015Z,11.78
2018-04-16T06:09:44.962Z,11.76
2018-04-16T06:10:44.960Z,11.76
2018-04-16T06:11:44.957Z,11.79
2018-04-16T06:12:44.951Z,11.80
2018-04-16T06:13:44.956Z,11.80
2018-04-16T06:14:44.949Z,11.80
2018-04-16T06:15:44.944Z,11.83
2018-04-16T06:16:44.944Z,11.88
2018-04-16T06:17:44.939Z,11.79
2018-04-16T06:18:44.935Z,11.90
2018-04-16T06:19:44.933Z,11.88
2018-04-16T06:20:44.929Z,11.85
2018-04-16T06:21:44.930Z,11.82
2018-04-16T06:22:44.936Z,11.79
2018-04-16T06:23:44.943Z,11.90
2018-04-16T06:24:44.952Z,11.88
2018-04-16T06:25:44.959Z,11.90
2018-04-16T06:26:44.963Z,11.91
2018-04-16T06:27:44.983Z,11.96
2018-04-16T06:28:44.979Z,11.95
2018-04-16T06:29:45.028Z,11.95
2018-04-16T06:30:44.901Z,11.86
2018-04-16T06:31:44.900Z,11.96
2018-04-16T06:32:44.900Z,11.96
2018-04-16T06:33:44.903Z,12.05
2018-04-16T06:34:44.892Z,12.02
2018-04-16T06:35:45.081Z,12.14
2018-04-16T06:36:44.894Z,12.14
2018-04-16T06:37:44.883Z,12.12
2018-04-16T06:38:44.919Z,12.13
2018-04-16T06:39:44.879Z,12.12
2018-04-16T06:40:44.881Z,12.13
2018-04-16T06:41:45.017Z,12.07
2018-04-16T06:42:44.869Z,12.04
2018-04-16T06:43:44.868Z,12.12
2018-04-16T06:44:44.865Z,12.17
2018-04-16T06:45:44.861Z,12.20
2018-04-16T06:46:44.858Z,12.24
2018-04-16T06:47:44.859Z,12.23
2018-04-16T06:48:44.852Z,12.24
2018-04-16T06:49:44.850Z,12.27
2018-04-16T06:50:44.850Z,12.24
2018-04-16T06:51:44.844Z,12.29
2018-04-16T06:52:44.840Z,12.34
2018-04-16T06:53:44.840Z,12.38
2018-04-16T06:54:44.840Z,12.38
2018-04-16T06:55:44.835Z,12.38
2018-04-16T06:56:44.832Z,12.41
2018-04-16T06:57:44.833Z,12.42
2018-04-16T06:58:44.825Z,12.38
2018-04-16T06:59:44.824Z,12.45
2018-04-16T07:00:44.825Z,12.52
2018-04-16T07:01:44.823Z,12.50
2018-04-16T07:02:44.817Z,12.52
2018-04-16T07:03:44.816Z,12.49
2018-04-16T07:04:44.816Z,12.41
2018-04-16T07:05:44.818Z,12.56
2018-04-16T07:06:44.810Z,12.54
2018-04-16T07:07:44.807Z,12.54
2018-04-16T07:08:44.809Z,12.53
2018-04-16T07:09:44.796Z,12.53
2018-04-16T07:10:44.798Z,12.52
2018-04-16T07:11:44.798Z,12.57
2018-04-16T07:12:44.795Z,12.52
2018-04-16T07:13:44.792Z,12.53
2018-04-16T07:14:44.792Z,12.49
2018-04-16T07:15:44.840Z,12.53
2018-04-16T07:16:44.786Z,12.54
2018-04-16T07:17:44.792Z,12.52
2018-04-16T07:18:44.782Z,12.57
2018-04-16T07:19:44.779Z,12.47
2018-04-16T07:20:44.780Z,12.45
2018-04-16T07:21:44.775Z,12.41
2018-04-16T07:22:44.777Z,12.46
2018-04-16T07:23:44.775Z,12.39
2018-04-16T07:24:44.768Z,12.39
2018-04-16T07:25:44.765Z,12.46
2018-04-16T07:26:44.769Z,12.41
2018-04-16T07:27:44.796Z,12.42
2018-04-16T07:28:44.757Z,12.39
2018-04-16T07:29:44.766Z,12.53
2018-04-16T07:30:44.755Z,12.50
2018-04-16T07:31:44.752Z,12.47
2018-04-16T07:32:44.747Z,12.42
2018-04-16T07:33:44.940Z,12.42
2018-04-16T07:34:44.745Z,12.46
2018-04-16T07:35:44.777Z,12.46
2018-04-16T07:36:44.737Z,12.24
2018-04-16T07:37:44.738Z,12.38
2018-04-16T07:38:44.735Z,12.38
2018-04-16T07:39:44.815Z,12.42
2018-04-16T07:40:44.743Z,12.49
2018-04-16T07:41:44.730Z,12.50
2018-04-16T07:42:44.727Z,12.42
2018-04-16T07:43:44.767Z,12.50
2018-04-16T07:44:44.729Z,12.50
2018-04-16T07:45:45.250Z,12.46
2018-04-16T07:46:44.720Z,12.54
2018-04-16T07:47:44.718Z,12.49
2018-04-16T07:48:44.719Z,12.53
2018-04-16T07:49:44.715Z,12.56
2018-04-16T07:50:44.712Z,12.56
2018-04-16T07:51:44.715Z,12.53
2018-04-16T07:52:44.705Z,12.54
2018-04-16T07:53:44.711Z,12.53
2018-04-16T07:54:44.704Z,12.50
2018-04-16T07:55:44.701Z,12.47
2018-04-16T07:56:44.697Z,12.45
2018-04-16T07:57:44.881Z,12.46
2018-04-16T07:58:44.695Z,12.45
2018-04-16T07:59:44.696Z,12.38
2018-04-16T08:00:44.690Z,12.45
2018-04-16T08:01:44.688Z,12.45
2018-04-16T08:02:44.694Z,12.57
2018-04-16T08:03:44.690Z,12.62
2018-04-16T08:04:44.683Z,12.64
2018-04-16T08:05:44.738Z,12.57
2018-04-16T08:06:44.688Z,12.62
2018-04-16T08:07:44.674Z,12.71
2018-04-16T08:08:44.678Z,12.60
2018-04-16T08:09:44.673Z,12.72
2018-04-16T08:10:44.669Z,12.65
2018-04-16T08:11:44.665Z,12.68
2018-04-16T08:12:44.667Z,12.75
2018-04-16T08:13:44.666Z,12.77
2018-04-16T08:14:44.666Z,12.68
2018-04-16T08:15:44.710Z,12.65
2018-04-16T08:16:44.663Z,12.57
2018-04-16T08:17:44.655Z,12.64
2018-04-16T08:18:44.654Z,12.71
2018-04-16T08:19:44.651Z,12.71
2018-04-16T08:20:44.650Z,12.68
2018-04-16T08:21:44.648Z,12.70
2018-04-16T08:22:44.646Z,12.79
2018-04-16T08:23:44.781Z,12.72
2018-04-16T08:24:44.641Z,12.74
2018-04-16T08:25:44.641Z,12.74
2018-04-16T08:26:44.645Z,12.72
2018-04-16T08:27:44.635Z,12.72
2018-04-16T08:28:44.641Z,12.74
2018-04-16T08:29:44.677Z,12.77
2018-04-16T08:30:44.630Z,12.75
2018-04-16T08:31:44.641Z,12.74
2018-04-16T08:32:44.626Z,12.75
2018-04-16T08:33:44.626Z,12.75
2018-04-16T08:34:44.624Z,12.75
2018-04-16T08:35:44.621Z,12.72
2018-04-16T08:36:44.618Z,12.70
2018-04-16T08:37:44.618Z,12.52
2018-04-16T08:38:44.625Z,12.65
2018-04-16T08:39:44.614Z,12.70
2018-04-16T08:40:44.611Z,12.75
2018-04-16T08:41:44.612Z,12.83
2018-04-16T08:42:44.608Z,12.79
2018-04-16T08:43:44.603Z,12.86
2018-04-16T08:44:44.602Z,12.92
2018-04-16T08:45:44.602Z,12.92
2018-04-16T08:46:44.598Z,13.05
2018-04-16T08:47:44.595Z,12.97
2018-04-16T08:48:44.599Z,13.05
2018-04-16T08:49:44.593Z,13.04
2018-04-16T08:50:44.591Z,13.01
2018-04-16T08:51:44.590Z,13.05
2018-04-16T08:52:44.585Z,12.96
2018-04-16T08:53:44.590Z,13.07
2018-04-16T08:54:44.579Z,13.07
2018-04-16T08:55:44.580Z,13.03
2018-04-16T08:56:44.577Z,13.14
2018-04-16T08:57:44.584Z,13.05
2018-04-16T08:58:44.575Z,13.12
2018-04-16T08:59:44.579Z,13.20
2018-04-16T09:00:44.570Z,13.25
2018-04-16T09:01:44.569Z,13.10
2018-04-16T09:02:44.567Z,13.23
2018-04-16T09:03:44.570Z,13.33
2018-04-16T09:04:44.563Z,13.52
2018-04-16T09:05:44.563Z,13.52
2018-04-16T09:06:44.561Z,13.60
2018-04-16T09:07:44.564Z,13.67
2018-04-16T09:08:44.603Z,13.88
2018-04-16T09:09:44.554Z,13.92
2018-04-16T09:10:44.554Z,13.95
2018-04-16T09:11:44.553Z,14.09
2018-04-16T09:12:44.733Z,14.10
2018-04-16T09:13:44.549Z,13.96
2018-04-16T09:14:44.544Z,13.88
2018-04-16T09:15:44.758Z,13.79
2018-04-16T09:16:44.543Z,13.82
2018-04-16T09:17:44.542Z,13.88
2018-04-16T09:18:44.542Z,13.87
2018-04-16T09:19:44.608Z,13.88
2018-04-16T09:20:44.537Z,13.77
2018-04-16T09:21:44.657Z,13.78
2018-04-16T09:22:44.539Z,13.79
2018-04-16T09:23:44.534Z,13.82
2018-04-16T09:24:44.547Z,13.71
2018-04-16T09:25:44.531Z,13.67
2018-04-16T09:26:44.536Z,13.71
2018-04-16T09:27:44.527Z,13.75
2018-04-16T09:28:44.531Z,13.81
2018-04-16T09:29:44.585Z,13.89
2018-04-16T09:30:44.524Z,14.07
2018-04-16T09:31:44.521Z,14.12
2018-04-16T09:32:44.529Z,14.15
2018-04-16T09:33:44.520Z,14.24
2018-04-16T09:34:44.518Z,14.27
2018-04-16T09:35:44.519Z,14.46
2018-04-16T09:36:44.518Z,14.33
2018-04-16T09:37:44.515Z,14.40
2018-04-16T09:38:44.511Z,14.50
2018-04-16T09:39:44.524Z,14.45
2018-04-16T09:40:44.512Z,14.43
2018-04-16T09:41:44.516Z,14.50
2018-04-16T09:42:44.510Z,14.62
2018-04-16T09:43:44.522Z,14.70
2018-04-16T09:44:44.510Z,14.55
2018-04-16T09:45:44.511Z,14.32
2018-04-16T09:46:44.508Z,14.42
2018-04-16T09:47:44.504Z,14.22
2018-04-16T09:48:44.697Z,14.42
2018-04-16T09:49:44.503Z,14.32
2018-04-16T09:50:44.500Z,14.36
2018-04-16T09:51:44.501Z,14.46
2018-04-16T09:52:44.505Z,14.37
2018-04-16T09:53:44.500Z,14.50
2018-04-16T09:54:44.499Z,14.69
2018-04-16T09:55:44.497Z,14.64
2018-04-16T09:56:44.495Z,14.75
2018-04-16T09:57:44.496Z,14.75
2018-04-16T09:58:44.494Z,14.83
2018-04-16T09:59:44.512Z,14.77
2018-04-16T10:00:44.495Z,14.96
2018-04-16T10:01:44.493Z,14.94
2018-04-16T10:02:44.485Z,14.98
2018-04-16T10:03:44.488Z,14.99
2018-04-16T10:04:44.500Z,14.94
2018-04-16T10:05:44.491Z,15.09
2018-04-16T10:06:44.487Z,15.09
2018-04-16T10:07:44.495Z,15.06
2018-04-16T10:08:44.485Z,15.06
2018-04-16T10:09:44.484Z,14.86
2018-04-16T10:10:44.484Z,14.80
2018-04-16T10:11:44.486Z,14.88
2018-04-16T10:12:44.481Z,14.75
2018-04-16T10:13:44.481Z,14.88
2018-04-16T10:14:44.483Z,15.09
2018-04-16T10:15:44.502Z,15.19
2018-04-16T10:16:44.485Z,15.17
2018-04-16T10:17:44.479Z,15.13
2018-04-16T10:18:44.479Z,15.20
2018-04-16T10:19:44.484Z,15.11
2018-04-16T10:20:44.477Z,15.02
2018-04-16T10:21:44.477Z,15.14
2018-04-16T10:22:44.476Z,15.29
2018-04-16T10:23:44.482Z,15.31
2018-04-16T10:24:44.476Z,15.41
2018-04-16T10:25:44.475Z,15.44
2018-04-16T10:26:44.476Z,15.47
2018-04-16T10:27:44.478Z,15.49
2018-04-16T10:28:44.475Z,15.56
2018-04-16T10:29:44.478Z,15.64
2018-04-16T10:30:44.475Z,15.49
2018-04-16T10:31:44.485Z,15.57
2018-04-16T10:32:44.473Z,15.60
2018-04-16T10:33:44.503Z,15.60
2018-04-16T10:34:44.670Z,15.60
2018-04-16T10:35:44.474Z,15.69
2018-04-16T10:36:44.474Z,15.54
2018-04-16T10:37:44.497Z,15.69
2018-04-16T10:38:44.473Z,15.74
2018-04-16T10:39:44.473Z,15.82
2018-04-16T10:40:44.472Z,15.82
2018-04-16T10:41:44.579Z,15.92
2018-04-16T10:42:44.482Z,16.01
2018-04-16T10:43:44.474Z,16.05
2018-04-16T10:44:44.471Z,16.09
2018-04-16T10:45:44.475Z,16.14
2018-04-16T10:46:44.470Z,16.30
2018-04-16T10:47:44.472Z,16.28
2018-04-16T10:48:44.472Z,16.27
2018-04-16T10:49:44.532Z,16.31
2018-04-16T10:50:44.615Z,16.46
2018-04-16T10:51:44.481Z,16.46
2018-04-16T10:52:44.474Z,16.52
2018-04-16T10:53:44.473Z,16.71
2018-04-16T10:54:44.472Z,16.71
2018-04-16T10:55:44.474Z,16.81
2018-04-16T10:56:44.472Z,16.89
2018-04-16T10:57:44.558Z,17.06
2018-04-16T10:58:44.477Z,17.18
2018-04-16T10:59:44.534Z,17.07
2018-04-16T11:00:44.544Z,17.23
2018-04-16T11:01:44.785Z,17.21
2018-04-16T11:02:44.499Z,17.19
2018-04-16T11:03:44.483Z,17.31
2018-04-16T11:04:44.602Z,17.41
2018-04-16T11:05:44.485Z,17.33
2018-04-16T11:06:44.481Z,17.46
2018-04-16T11:07:44.477Z,17.38
2018-04-16T11:08:44.481Z,17.36
2018-04-16T11:09:44.723Z,17.44
2018-04-16T11:10:44.501Z,17.66
2018-04-16T11:11:44.487Z,17.64
2018-04-16T11:12:44.482Z,17.71
2018-04-16T11:13:44.613Z,17.58
2018-04-16T11:14:44.488Z,17.66
2018-04-16T11:15:44.520Z,17.78
2018-04-16T11:16:44.490Z,17.79
2018-04-16T11:17:44.548Z,17.90
2018-04-16T11:18:44.493Z,17.95
2018-04-16T11:19:44.767Z,18.10
2018-04-16T11:20:44.493Z,18.03
2018-04-16T11:21:44.496Z,17.99
2018-04-16T11:22:44.496Z,17.96
2018-04-16T11:23:44.501Z,17.97
2018-04-16T11:24:44.747Z,17.74
2018-04-16T11:25:44.499Z,17.55
2018-04-16T11:26:45.138Z,17.79
2018-04-16T11:27:44.878Z,17.48
2018-04-16T11:28:44.825Z,17.40
2018-04-16T11:29:44.552Z,17.37
2018-04-16T11:30:44.510Z,17.48
2018-04-16T11:31:44.508Z,17.41
2018-04-16T11:32:44.517Z,17.54
2018-04-16T11:33:44.510Z,17.48
2018-04-16T11:34:44.511Z,17.68
2018-04-16T11:35:44.515Z,17.68
2018-04-16T11:36:44.523Z,17.66
2018-04-16T11:37:44.514Z,17.77
2018-04-16T11:38:44.517Z,17.81
2018-04-16T11:39:44.521Z,17.70
2018-04-16T11:40:44.518Z,17.71
2018-04-16T11:41:44.522Z,17.52
2018-04-16T11:42:44.528Z,17.59
2018-04-16T11:43:44.621Z,17.74
2018-04-16T11:44:44.528Z,17.97
2018-04-16T11:45:44.648Z,18.03
2018-04-16T11:46:44.565Z,17.89
2018-04-16T11:47:44.528Z,17.95
2018-04-16T11:48:44.606Z,17.97
2018-04-16T11:49:44.532Z,18.07
2018-04-16T11:50:44.530Z,18.07
2018-04-16T11:51:44.544Z,18.02
2018-04-16T11:52:44.534Z,17.99
2018-04-16T11:53:44.650Z,18.10
2018-04-16T11:54:44.536Z,18.15
2018-04-16T11:55:44.545Z,18.26
2018-04-16T11:56:44.538Z,18.17
2018-04-16T11:57:44.539Z,18.23
2018-04-16T11:58:44.581Z,18.44
2018-04-16T11:59:44.544Z,18.47
2018-04-16T12:00:44.646Z,18.41
2018-04-16T12:01:44.551Z,18.33
2018-04-16T12:02:44.551Z,18.18
2018-04-16T12:03:44.551Z,18.23
2018-04-16T12:04:44.571Z,18.32
2018-04-16T12:05:44.553Z,18.17
2018-04-16T12:06:44.553Z,18.00
2018-04-16T12:07:44.555Z,17.86
2018-04-16T12:08:44.553Z,17.92
2018-04-16T12:09:44.699Z,18.05
2018-04-16T12:10:44.560Z,18.02
2018-04-16T12:11:44.561Z,17.93
2018-04-16T12:12:44.563Z,17.96
2018-04-16T12:13:44.564Z,18.14
2018-04-16T12:14:44.571Z,18.14
2018-04-16T12:15:44.568Z,18.10
2018-04-16T12:16:44.568Z,18.21
2018-04-16T12:17:44.579Z,17.75
2018-04-16T12:18:44.573Z,17.70
2018-04-16T12:19:44.613Z,17.71
2018-04-16T12:20:44.582Z,17.68
2018-04-16T12:21:44.576Z,17.77
2018-04-16T12:22:44.575Z,17.92
2018-04-16T12:23:44.631Z,18.11
2018-04-16T12:24:44.580Z,18.10
2018-04-16T12:25:44.750Z,18.05
2018-04-16T12:26:44.580Z,17.95
2018-04-16T12:27:44.633Z,18.00
2018-04-16T12:28:44.585Z,18.26
2018-04-16T12:29:44.586Z,18.12
2018-04-16T12:30:44.591Z,18.00
2018-04-16T12:31:44.590Z,18.02
2018-04-16T12:32:44.593Z,17.96
2018-04-16T12:33:44.595Z,18.15
2018-04-16T12:34:44.593Z,18.20
2018-04-16T12:35:44.717Z,18.18
2018-04-16T12:36:44.605Z,17.96
2018-04-16T12:37:44.598Z,17.77
2018-04-16T12:38:44.599Z,17.93
2018-04-16T12:39:44.601Z,17.96
2018-04-16T12:40:44.608Z,17.93
2018-04-16T12:41:44.768Z,18.11
2018-04-16T12:42:44.800Z,17.97
2018-04-16T12:43:44.717Z,18.00
2018-04-16T12:44:44.823Z,18.07
2018-04-16T12:45:44.610Z,18.03
2018-04-16T12:46:44.612Z,18.08
2018-04-16T12:47:44.613Z,18.11
2018-04-16T12:48:44.712Z,17.78
2018-04-16T12:49:44.619Z,17.77
2018-04-16T12:50:44.632Z,17.62
2018-04-16T12:51:44.633Z,17.64
2018-04-16T12:52:44.622Z,17.64